createdAt,value
2019-06-10T00:00:44.339Z,0.00
2019-06-10T00:01:44.226Z,0.00
2019-06-10T00:02:44.205Z,0.00
2019-06-10T00:03:44.183Z,0.00
2019-06-10T00:04:44.161Z,0.00
2019-06-10T00:05:44.138Z,0.00
2019-06-10T00:06:44.115Z,0.00
2019-06-10T00:07:44.094Z,0.00
2019-06-10T00:08:44.072Z,0.00
2019-06-10T00:09:44.052Z,0.00
2019-06-10T00:10:44.028Z,0.00
2019-06-10T00:11:44.005Z,0.00
2019-06-10T00:12:43.986Z,0.00
2019-06-10T00:13:43.962Z,0.00
2019-06-10T00:14:43.940Z,0.00
2019-06-10T00:15:43.917Z,0.00
2019-06-10T00:16:43.898Z,0.00
2019-06-10T00:17:54.846Z,0.00
2019-06-10T00:18:45.699Z,0.00
2019-06-10T00:19:43.831Z,0.00
2019-06-10T00:20:43.808Z,0.00
2019-06-10T00:21:43.785Z,0.00
2019-06-10T00:22:43.763Z,0.00
2019-06-10T00:23:43.741Z,0.00
2019-06-10T00:24:43.721Z,0.00
2019-06-10T00:25:43.697Z,0.00
2019-06-10T00:26:43.674Z,0.00
2019-06-10T00:27:43.654Z,0.00
2019-06-10T00:28:43.632Z,0.00
2019-06-10T00:29:43.607Z,0.00
2019-06-10T00:30:43.586Z,0.00
2019-06-10T00:31:43.565Z,0.00
2019-06-10T00:32:43.541Z,0.00
2019-06-10T00:33:43.518Z,0.00
2019-06-10T00:34:43.497Z,0.00
2019-06-10T00:35:43.475Z,0.00
2019-06-10T00:36:43.457Z,0.00
2019-06-10T00:37:43.430Z,0.00
2019-06-10T00:38:43.409Z,0.00
2019-06-10T00:39:43.397Z,0.00
2019-06-10T00:40:43.374Z,0.00
2019-06-10T00:41:43.344Z,0.00
2019-06-10T00:42:43.320Z,0.00
2019-06-10T00:43:43.299Z,0.00
2019-06-10T00:44:43.277Z,0.00
2019-06-10T00:45:43.255Z,0.00
2019-06-10T00:46:43.232Z,0.00
2019-06-10T00:47:43.215Z,0.00
2019-06-10T00:48:43.188Z,0.00
2019-06-10T00:49:43.170Z,0.00
2019-06-10T00:50:43.145Z,0.00
2019-06-10T00:51:43.121Z,0.00
2019-06-10T00:52:45.279Z,0.00
2019-06-10T00:53:43.076Z,0.00
2019-06-10T00:54:43.055Z,0.00
2019-06-10T00:55:43.033Z,0.00
2019-06-10T00:56:43.011Z,0.00
2019-06-10T00:57:42.987Z,0.00
2019-06-10T00:58:42.969Z,0.00
2019-06-10T00:59:42.947Z,0.00
2019-06-10T01:00:42.923Z,0.00
2019-06-10T01:01:42.900Z,0.00
2019-06-10T01:02:42.882Z,0.00
2019-06-10T01:03:42.857Z,0.00
2019-06-10T01:04:42.833Z,0.00
2019-06-10T01:05:42.819Z,0.00
2019-06-10T01:06:42.798Z,0.00
2019-06-10T01:07:42.766Z,0.00
2019-06-10T01:08:42.744Z,0.00
2019-06-10T01:09:42.723Z,0.00
2019-06-10T01:10:44.247Z,0.00
2019-06-10T01:11:42.679Z,0.00
2019-06-10T01:12:42.654Z,0.00
2019-06-10T01:13:42.632Z,0.00
2019-06-10T01:14:42.610Z,0.00
2019-06-10T01:15:42.590Z,0.00
2019-06-10T01:16:42.566Z,0.00
2019-06-10T01:17:42.541Z,0.00
2019-06-10T01:18:42.521Z,0.00
2019-06-10T01:19:42.498Z,0.00
2019-06-10T01:20:42.491Z,0.00
2019-06-10T01:21:42.453Z,0.00
2019-06-10T01:22:42.431Z,0.00
2019-06-10T01:23:42.415Z,0.00
2019-06-10T01:24:42.386Z,0.00
2019-06-10T01:25:42.753Z,0.00
2019-06-10T01:26:42.342Z,0.00
2019-06-10T01:27:42.318Z,0.00
2019-06-10T01:28:42.296Z,0.00
2019-06-10T01:29:42.273Z,0.00
2019-06-10T01:30:42.252Z,0.00
2019-06-10T01:31:42.227Z,0.00
2019-06-10T01:32:42.208Z,0.00
2019-06-10T01:33:42.182Z,0.00
2019-06-10T01:34:42.160Z,0.00
2019-06-10T01:35:42.139Z,0.00
2019-06-10T01:36:42.115Z,0.00
2019-06-10T01:37:42.091Z,0.00
2019-06-10T01:38:42.074Z,0.00
2019-06-10T01:39:42.057Z,0.00
2019-06-10T01:40:42.457Z,0.00
2019-06-10T01:41:42.003Z,0.00
2019-06-10T01:42:41.980Z,0.00
2019-06-10T01:43:41.957Z,0.00
2019-06-10T01:44:41.942Z,0.00
2019-06-10T01:45:42.277Z,0.00
2019-06-10T01:46:41.890Z,0.00
2019-06-10T01:47:41.870Z,0.00
2019-06-10T01:48:47.948Z,0.00
2019-06-10T01:49:41.823Z,0.00
2019-06-10T01:50:41.801Z,0.00
2019-06-10T01:51:41.778Z,0.00
2019-06-10T01:52:41.756Z,0.00
2019-06-10T01:53:41.732Z,0.00
2019-06-10T01:54:42.134Z,0.00
2019-06-10T01:55:42.103Z,0.00
2019-06-10T01:56:41.666Z,0.00
2019-06-10T01:57:41.643Z,0.00
2019-06-10T01:58:41.641Z,0.00
2019-06-10T01:59:41.597Z,0.00
2019-06-10T02:00:41.888Z,0.00
2019-06-10T02:01:41.552Z,0.00
2019-06-10T02:02:44.760Z,0.00
2019-06-10T02:03:41.642Z,0.00
2019-06-10T02:04:41.486Z,0.00
2019-06-10T02:05:42.054Z,0.00
2019-06-10T02:06:41.439Z,4.00
2019-06-10T02:07:41.417Z,4.00
2019-06-10T02:08:41.874Z,4.00
2019-06-10T02:09:41.373Z,4.00
2019-06-10T02:10:41.632Z,0.00
2019-06-10T02:11:41.589Z,4.00
2019-06-10T02:12:41.615Z,4.00
2019-06-10T02:13:41.282Z,4.00
2019-06-10T02:14:41.671Z,4.00
2019-06-10T02:15:41.242Z,8.00
2019-06-10T02:16:41.561Z,4.00
2019-06-10T02:17:41.727Z,4.00
2019-06-10T02:18:54.409Z,8.00
2019-06-10T02:19:41.513Z,4.00
2019-06-10T02:20:41.330Z,8.00
2019-06-10T02:21:41.734Z,8.00
2019-06-10T02:22:41.278Z,12.00
2019-06-10T02:23:41.235Z,16.00
2019-06-10T02:24:41.655Z,16.00
2019-06-10T02:25:41.335Z,20.00
2019-06-10T02:26:41.179Z,20.00
2019-06-10T02:27:41.523Z,24.00
2019-06-10T02:28:40.946Z,28.00
2019-06-10T02:29:41.270Z,36.00
2019-06-10T02:30:50.323Z,40.00
2019-06-10T02:31:43.309Z,48.00
2019-06-10T02:32:42.839Z,52.00
2019-06-10T02:33:42.026Z,56.00
2019-06-10T02:34:53.621Z,60.00
2019-06-10T02:35:48.404Z,68.00
2019-06-10T02:36:44.229Z,72.00
2019-06-10T02:37:44.228Z,80.00
2019-06-10T02:38:44.218Z,88.00
2019-06-10T02:39:43.773Z,92.00
2019-06-10T02:40:43.334Z,96.00
2019-06-10T02:41:44.231Z,104.00
2019-06-10T02:42:43.556Z,108.00
2019-06-10T02:43:43.814Z,112.00
2019-06-10T02:44:44.175Z,120.00
2019-06-10T02:45:44.204Z,120.00
2019-06-10T02:46:43.971Z,124.00
2019-06-10T02:47:44.024Z,128.00
2019-06-10T02:48:43.358Z,132.00
2019-06-10T02:49:55.837Z,136.00
2019-06-10T02:50:43.856Z,140.00
2019-06-10T02:51:43.457Z,152.00
2019-06-10T02:52:44.073Z,160.00
2019-06-10T02:53:43.098Z,172.00
2019-06-10T02:54:43.703Z,188.00
2019-06-10T02:55:43.223Z,208.00
2019-06-10T02:56:43.902Z,236.00
2019-06-10T02:57:40.812Z,256.00
2019-06-10T02:58:44.509Z,284.00
2019-06-10T02:59:43.419Z,300.00
2019-06-10T03:00:47.484Z,320.00
2019-06-10T03:01:43.579Z,340.00
2019-06-10T03:02:44.525Z,360.00
2019-06-10T03:03:45.912Z,388.00
2019-06-10T03:04:43.132Z,416.00
2019-06-10T03:05:41.304Z,448.00
2019-06-10T03:06:44.031Z,472.00
2019-06-10T03:07:40.065Z,492.00
2019-06-10T03:08:43.389Z,504.00
2019-06-10T03:09:42.588Z,512.00
2019-06-10T03:10:43.437Z,516.00
2019-06-10T03:11:40.216Z,516.00
2019-06-10T03:12:42.278Z,524.00
2019-06-10T03:13:39.954Z,532.00
2019-06-10T03:14:42.154Z,532.00
2019-06-10T03:15:39.885Z,532.00
2019-06-10T03:16:42.192Z,540.00
2019-06-10T03:17:39.840Z,544.00
2019-06-10T03:18:39.818Z,556.00
2019-06-10T03:19:47.878Z,580.00
2019-06-10T03:20:39.773Z,608.00
2019-06-10T03:21:39.749Z,644.00
2019-06-10T03:22:42.141Z,672.00
2019-06-10T03:23:39.705Z,700.00
2019-06-10T03:24:42.045Z,724.00
2019-06-10T03:25:39.660Z,748.00
2019-06-10T03:26:39.639Z,776.00
2019-06-10T03:27:42.256Z,804.00
2019-06-10T03:28:39.593Z,836.00
2019-06-10T03:29:42.034Z,880.00
2019-06-10T03:30:52.338Z,944.00
2019-06-10T03:31:43.154Z,1012.00
2019-06-10T03:32:42.657Z,1060.00
2019-06-10T03:33:42.035Z,1076.00
2019-06-10T03:34:45.868Z,1076.00
2019-06-10T03:35:39.438Z,1056.00
2019-06-10T03:36:39.413Z,1028.00
2019-06-10T03:37:39.389Z,996.00
2019-06-10T03:38:39.370Z,952.00
2019-06-10T03:39:39.346Z,904.00
2019-06-10T03:40:39.324Z,852.00
2019-06-10T03:41:39.300Z,792.00
2019-06-10T03:42:39.278Z,748.00
2019-06-10T03:43:39.256Z,716.00
2019-06-10T03:44:39.233Z,696.00
2019-06-10T03:45:39.213Z,680.00
2019-06-10T03:46:39.188Z,676.00
2019-06-10T03:47:39.166Z,684.00
2019-06-10T03:48:39.144Z,696.00
2019-06-10T03:49:49.835Z,708.00
2019-06-10T03:50:39.100Z,708.00
2019-06-10T03:51:39.080Z,700.00
2019-06-10T03:52:39.053Z,696.00
2019-06-10T03:53:39.030Z,692.00
2019-06-10T03:54:39.010Z,684.00
2019-06-10T03:55:38.988Z,664.00
2019-06-10T03:56:38.964Z,632.00
2019-06-10T03:57:38.942Z,600.00
2019-06-10T03:58:38.920Z,588.00
2019-06-10T03:59:38.897Z,572.00
2019-06-10T04:00:38.877Z,564.00
2019-06-10T04:01:38.851Z,568.00
2019-06-10T04:02:38.830Z,592.00
2019-06-10T04:03:38.808Z,632.00
2019-06-10T04:04:38.786Z,692.00
2019-06-10T04:05:38.767Z,764.00
2019-06-10T04:06:38.752Z,844.00
2019-06-10T04:07:38.720Z,916.00
2019-06-10T04:08:38.695Z,968.00
2019-06-10T04:09:38.672Z,1008.00
2019-06-10T04:10:38.652Z,1036.00
2019-06-10T04:11:38.735Z,1068.00
2019-06-10T04:12:38.607Z,1100.00
2019-06-10T04:13:38.585Z,1112.00
2019-06-10T04:14:38.563Z,1116.00
2019-06-10T04:15:38.539Z,1140.00
2019-06-10T04:16:38.517Z,1208.00
2019-06-10T04:17:38.498Z,1288.00
2019-06-10T04:18:38.471Z,1348.00
2019-06-10T04:19:38.448Z,1392.00
2019-06-10T04:20:38.428Z,1432.00
2019-06-10T04:21:38.416Z,1476.00
2019-06-10T04:22:38.385Z,1536.00
2019-06-10T04:23:38.359Z,1624.00
2019-06-10T04:24:38.340Z,1744.00
2019-06-10T04:25:38.314Z,1884.00
2019-06-10T04:26:38.292Z,2068.00
2019-06-10T04:27:38.271Z,2300.00
2019-06-10T04:28:38.250Z,2576.00
2019-06-10T04:29:38.226Z,2852.00
2019-06-10T04:30:38.215Z,3064.00
2019-06-10T04:31:38.206Z,3156.00
2019-06-10T04:32:38.158Z,3164.00
2019-06-10T04:33:38.136Z,3120.00
2019-06-10T04:34:38.113Z,3140.00
2019-06-10T04:35:38.091Z,3244.00
2019-06-10T04:36:38.070Z,3424.00
2019-06-10T04:37:38.046Z,3576.00
2019-06-10T04:38:38.022Z,3560.00
2019-06-10T04:39:37.999Z,3356.00
2019-06-10T04:40:37.980Z,3128.00
2019-06-10T04:41:38.077Z,2964.00
2019-06-10T04:42:37.934Z,2860.00
2019-06-10T04:43:37.912Z,2776.00
2019-06-10T04:44:37.890Z,2728.00
2019-06-10T04:45:37.867Z,2724.00
2019-06-10T04:46:37.845Z,2740.00
2019-06-10T04:47:37.822Z,2780.00
2019-06-10T04:48:37.800Z,2884.00
2019-06-10T04:49:37.776Z,3052.00
2019-06-10T04:50:45.502Z,3260.00
2019-06-10T04:51:37.785Z,3476.00
2019-06-10T04:52:37.712Z,3712.00
2019-06-10T04:53:40.305Z,3948.00
2019-06-10T04:54:37.665Z,4120.00
2019-06-10T04:55:37.644Z,4176.00
2019-06-10T04:56:37.622Z,4096.00
2019-06-10T04:57:37.607Z,3940.00
2019-06-10T04:58:37.577Z,3776.00
2019-06-10T04:59:37.555Z,3640.00
2019-06-10T05:00:37.532Z,3536.00
2019-06-10T05:01:37.551Z,3472.00
2019-06-10T05:02:37.487Z,3436.00
2019-06-10T05:03:37.465Z,3416.00
2019-06-10T05:04:37.446Z,3412.00
2019-06-10T05:05:37.421Z,3408.00
2019-06-10T05:06:37.400Z,3388.00
2019-06-10T05:07:37.377Z,3340.00
2019-06-10T05:08:37.384Z,3264.00
2019-06-10T05:09:37.334Z,3184.00
2019-06-10T05:10:37.311Z,3120.00
2019-06-10T05:11:37.307Z,3080.00
2019-06-10T05:12:37.267Z,3068.00
2019-06-10T05:13:37.245Z,3088.00
2019-06-10T05:14:37.223Z,3132.00
2019-06-10T05:15:37.201Z,3176.00
2019-06-10T05:16:37.181Z,3208.00
2019-06-10T05:17:37.157Z,3216.00
2019-06-10T05:18:37.136Z,3232.00
2019-06-10T05:19:37.114Z,3280.00
2019-06-10T05:20:54.217Z,3376.00
2019-06-10T05:21:37.147Z,3504.00
2019-06-10T05:22:37.047Z,3652.00
2019-06-10T05:23:37.027Z,3792.00
2019-06-10T05:24:37.005Z,3944.00
2019-06-10T05:25:36.982Z,4132.00
2019-06-10T05:26:36.960Z,4368.00
2019-06-10T05:27:36.937Z,4652.00
2019-06-10T05:28:36.917Z,4980.00
2019-06-10T05:29:36.895Z,5328.00
2019-06-10T05:30:36.873Z,5668.00
2019-06-10T05:31:36.852Z,6024.00
2019-06-10T05:32:36.830Z,6428.00
2019-06-10T05:33:36.807Z,6904.00
2019-06-10T05:34:36.788Z,7484.00
2019-06-10T05:35:36.764Z,8144.00
2019-06-10T05:36:36.743Z,8888.00
2019-06-10T05:37:36.721Z,9728.00
2019-06-10T05:38:36.699Z,10676.00
2019-06-10T05:39:36.679Z,11752.00
2019-06-10T05:40:36.658Z,12876.00
2019-06-10T05:41:36.636Z,13972.00
2019-06-10T05:42:36.624Z,14960.00
2019-06-10T05:43:36.592Z,15852.00
2019-06-10T05:44:36.572Z,16628.00
2019-06-10T05:45:36.549Z,17792.00
2019-06-10T05:46:36.528Z,21056.00
2019-06-10T05:47:36.508Z,27552.00
2019-06-10T05:48:36.486Z,33664.00
2019-06-10T05:49:36.469Z,36256.00
2019-06-10T05:50:36.445Z,30304.00
2019-06-10T05:51:36.427Z,32896.00
2019-06-10T05:52:36.412Z,32448.00
2019-06-10T05:53:36.385Z,31936.00
2019-06-10T05:54:36.364Z,34464.00
2019-06-10T05:55:36.347Z,35168.00
2019-06-10T05:56:36.333Z,30368.00
2019-06-10T05:57:36.308Z,20576.00
2019-06-10T05:58:36.288Z,18272.00
2019-06-10T05:59:36.271Z,16308.00
2019-06-10T06:00:36.252Z,15128.00
2019-06-10T06:01:38.260Z,14748.00
2019-06-10T06:02:36.215Z,15060.00
2019-06-10T06:03:37.069Z,15540.00
2019-06-10T06:04:36.216Z,15920.00
2019-06-10T06:05:37.979Z,16104.00
2019-06-10T06:06:37.412Z,16316.00
2019-06-10T06:07:36.121Z,16560.00
2019-06-10T06:08:36.102Z,16852.00
2019-06-10T06:09:36.085Z,17408.00
2019-06-10T06:10:36.115Z,17888.00
2019-06-10T06:11:36.045Z,18208.00
2019-06-10T06:12:36.027Z,18240.00
2019-06-10T06:13:36.152Z,18080.00
2019-06-10T06:14:36.203Z,17920.00
2019-06-10T06:15:35.971Z,17984.00
2019-06-10T06:16:36.294Z,18304.00
2019-06-10T06:17:35.932Z,18656.00
2019-06-10T06:18:36.502Z,18816.00
2019-06-10T06:19:38.408Z,18816.00
2019-06-10T06:20:36.035Z,18816.00
2019-06-10T06:21:41.869Z,18592.00
2019-06-10T06:22:35.832Z,18496.00
2019-06-10T06:23:37.088Z,18592.00
2019-06-10T06:24:35.822Z,19136.00
2019-06-10T06:25:39.807Z,19584.00
2019-06-10T06:26:38.062Z,20096.00
2019-06-10T06:27:37.060Z,20096.00
2019-06-10T06:28:36.182Z,20640.00
2019-06-10T06:29:37.051Z,21568.00
2019-06-10T06:30:36.436Z,21120.00
2019-06-10T06:31:36.486Z,21376.00
2019-06-10T06:32:36.951Z,21760.00
2019-06-10T06:33:38.033Z,22464.00
2019-06-10T06:34:38.342Z,23264.00
2019-06-10T06:35:42.730Z,23296.00
2019-06-10T06:36:38.012Z,22688.00
2019-06-10T06:37:37.724Z,22016.00
2019-06-10T06:38:37.193Z,21472.00
2019-06-10T06:39:37.064Z,20896.00
2019-06-10T06:40:37.320Z,19968.00
2019-06-10T06:41:37.190Z,18816.00
2019-06-10T06:42:36.775Z,17984.00
2019-06-10T06:43:38.964Z,17792.00
2019-06-10T06:44:37.655Z,18176.00
2019-06-10T06:45:37.290Z,19360.00
2019-06-10T06:46:37.859Z,22816.00
2019-06-10T06:47:37.119Z,23616.00
2019-06-10T06:48:38.346Z,28160.00
2019-06-10T06:49:36.817Z,39200.00
2019-06-10T06:50:36.178Z,32960.00
2019-06-10T06:51:47.708Z,26464.00
2019-06-10T06:53:04.960Z,23904.00
2019-06-10T06:53:45.468Z,21984.00
2019-06-10T06:54:36.238Z,20704.00
2019-06-10T06:55:36.542Z,20352.00
2019-06-10T06:56:37.375Z,20576.00
2019-06-10T06:57:36.774Z,21056.00
2019-06-10T06:58:36.913Z,21632.00
2019-06-10T06:59:36.925Z,22080.00
2019-06-10T07:00:51.004Z,22368.00
2019-06-10T07:01:37.628Z,22784.00
2019-06-10T07:02:37.210Z,23872.00
2019-06-10T07:03:38.104Z,25760.00
2019-06-10T07:04:35.873Z,28224.00
2019-06-10T07:05:35.979Z,30784.00
2019-06-10T07:06:36.031Z,32224.00
2019-06-10T07:07:36.019Z,32064.00
2019-06-10T07:08:37.542Z,31872.00
2019-06-10T07:09:36.178Z,32672.00
2019-06-10T07:10:36.128Z,33888.00
2019-06-10T07:11:37.393Z,35232.00
2019-06-10T07:12:36.451Z,37248.00
2019-06-10T07:13:37.118Z,40384.00
2019-06-10T07:14:37.303Z,36800.00
2019-06-10T07:15:37.722Z,34560.00
2019-06-10T07:16:38.651Z,33152.00
2019-06-10T07:17:37.394Z,32576.00
2019-06-10T07:18:41.155Z,33248.00
2019-06-10T07:19:37.952Z,36576.00
2019-06-10T07:20:37.605Z,39168.00
2019-06-10T07:21:51.465Z,41536.00
2019-06-10T07:22:36.888Z,51040.00
2019-06-10T07:23:38.877Z,51680.00
2019-06-10T07:24:37.900Z,57696.00
2019-06-10T07:25:37.339Z,53056.00
2019-06-10T07:26:40.535Z,72576.00
2019-06-10T07:27:37.567Z,53376.00
2019-06-10T07:28:37.452Z,49184.00
2019-06-10T07:29:37.415Z,47968.00
2019-06-10T07:30:37.653Z,51136.00
2019-06-10T07:31:36.418Z,55296.00
2019-06-10T07:32:37.344Z,53088.00
2019-06-10T07:33:37.373Z,54816.00
2019-06-10T07:34:36.724Z,55584.00
2019-06-10T07:35:35.737Z,57920.00
2019-06-10T07:36:35.624Z,69792.00
2019-06-10T07:37:34.999Z,55648.00
2019-06-10T07:38:37.204Z,44256.00
2019-06-10T07:39:36.468Z,43360.00
2019-06-10T07:40:35.916Z,47296.00
2019-06-10T07:41:35.631Z,41216.00
2019-06-10T07:42:34.911Z,40672.00
2019-06-10T07:43:38.267Z,36736.00
2019-06-10T07:44:34.908Z,36064.00
2019-06-10T07:45:37.761Z,36000.00
2019-06-10T07:46:36.044Z,36672.00
2019-06-10T07:47:35.321Z,39424.00
2019-06-10T07:48:36.508Z,42592.00
2019-06-10T07:49:35.378Z,43392.00
2019-06-10T07:50:34.994Z,41440.00
2019-06-10T07:51:35.788Z,40672.00
2019-06-10T07:52:35.603Z,41248.00
2019-06-10T07:53:36.325Z,39360.00
2019-06-10T07:54:34.808Z,38688.00
2019-06-10T07:55:35.012Z,35584.00
2019-06-10T07:56:38.875Z,31968.00
2019-06-10T07:57:34.738Z,31040.00
2019-06-10T07:58:36.493Z,37376.00
2019-06-10T07:59:35.323Z,62208.00
2019-06-10T08:00:36.233Z,55232.00
2019-06-10T08:01:35.103Z,61440.00
2019-06-10T08:02:34.416Z,52064.00
2019-06-10T08:03:35.261Z,66528.00
2019-06-10T08:04:35.239Z,41152.00
2019-06-10T08:05:34.291Z,37344.00
2019-06-10T08:06:36.106Z,36448.00
2019-06-10T08:07:35.184Z,35808.00
2019-06-10T08:08:34.820Z,35584.00
2019-06-10T08:09:35.697Z,35808.00
2019-06-10T08:10:35.006Z,35296.00
2019-06-10T08:11:35.142Z,34912.00
2019-06-10T08:12:35.061Z,35136.00
2019-06-10T08:13:35.175Z,35520.00
2019-06-10T08:14:33.879Z,35488.00
2019-06-10T08:15:33.866Z,35040.00
2019-06-10T08:16:33.847Z,34432.00
2019-06-10T08:17:33.831Z,33568.00
2019-06-10T08:18:44.721Z,32384.00
2019-06-10T08:19:37.789Z,31168.00
2019-06-10T08:20:34.925Z,30208.00
2019-06-10T08:21:33.769Z,29536.00
2019-06-10T08:22:39.908Z,29408.00
2019-06-10T08:23:33.745Z,29440.00
2019-06-10T08:24:33.723Z,29472.00
2019-06-10T08:25:33.704Z,29248.00
2019-06-10T08:26:33.689Z,28768.00
2019-06-10T08:27:33.738Z,27936.00
2019-06-10T08:28:33.656Z,27040.00
2019-06-10T08:29:33.650Z,26144.00
2019-06-10T08:30:33.628Z,25728.00
2019-06-10T08:31:33.608Z,26528.00
2019-06-10T08:32:33.766Z,28576.00
2019-06-10T08:33:33.574Z,31552.00
2019-06-10T08:34:33.558Z,36992.00
2019-06-10T08:35:41.993Z,36128.00
2019-06-10T08:36:33.553Z,36448.00
2019-06-10T08:37:33.508Z,35040.00
2019-06-10T08:38:33.493Z,34784.00
2019-06-10T08:39:33.688Z,35520.00
2019-06-10T08:40:33.461Z,36736.00
2019-06-10T08:41:33.442Z,37824.00
2019-06-10T08:42:33.428Z,38848.00
2019-06-10T08:43:33.412Z,40224.00
2019-06-10T08:44:33.395Z,38976.00
2019-06-10T08:45:33.489Z,37984.00
2019-06-10T08:46:33.363Z,37568.00
2019-06-10T08:47:33.347Z,38048.00
2019-06-10T08:48:33.332Z,38912.00
2019-06-10T08:49:33.316Z,37696.00
2019-06-10T08:50:33.828Z,36640.00
2019-06-10T08:51:33.285Z,36224.00
2019-06-10T08:52:48.918Z,37408.00
2019-06-10T08:53:33.324Z,40288.00
2019-06-10T08:54:33.238Z,44640.00
2019-06-10T08:55:33.547Z,51968.00
2019-06-10T08:56:33.206Z,60480.00
2019-06-10T08:57:33.560Z,107616.00
2019-06-10T08:58:33.297Z,126432.00
2019-06-10T08:59:33.250Z,126368.00
2019-06-10T09:00:33.786Z,86400.00
2019-06-10T09:01:33.601Z,77376.00
2019-06-10T09:02:33.502Z,97408.00
2019-06-10T09:03:33.102Z,62688.00
2019-06-10T09:04:33.231Z,68448.00
2019-06-10T09:05:33.073Z,102720.00
2019-06-10T09:06:33.159Z,91040.00
2019-06-10T09:07:33.045Z,84352.00
2019-06-10T09:08:33.031Z,61920.00
2019-06-10T09:09:33.634Z,75616.00
2019-06-10T09:10:33.931Z,79328.00
2019-06-10T09:11:33.023Z,76992.00
2019-06-10T09:12:36.548Z,76640.00
2019-06-10T09:13:33.807Z,75648.00
2019-06-10T09:14:32.948Z,70752.00
2019-06-10T09:15:32.935Z,82112.00
2019-06-10T09:16:33.050Z,72032.00
2019-06-10T09:17:33.891Z,89792.00
2019-06-10T09:18:33.879Z,85760.00
2019-06-10T09:19:33.332Z,96608.00
2019-06-10T09:20:33.270Z,92448.00
2019-06-10T09:21:33.195Z,92736.00
2019-06-10T09:22:32.850Z,98400.00
2019-06-10T09:23:33.265Z,85440.00
2019-06-10T09:24:32.929Z,79648.00
2019-06-10T09:25:33.529Z,82752.00
2019-06-10T09:26:33.838Z,91840.00
2019-06-10T09:27:32.878Z,83360.00
2019-06-10T09:28:33.088Z,60768.00
2019-06-10T09:29:32.999Z,61248.00
2019-06-10T09:30:33.382Z,58112.00
2019-06-10T09:31:33.146Z,73760.00
2019-06-10T09:32:32.715Z,99520.00
2019-06-10T09:33:33.211Z,98720.00
2019-06-10T09:34:33.197Z,91072.00
2019-06-10T09:35:32.676Z,94624.00
2019-06-10T09:36:32.680Z,98208.00
2019-06-10T09:37:32.650Z,105440.00
2019-06-10T09:38:33.525Z,102720.00
2019-06-10T09:39:32.938Z,95488.00
2019-06-10T09:40:33.338Z,87936.00
2019-06-10T09:41:41.064Z,73408.00
2019-06-10T09:42:33.295Z,77344.00
2019-06-10T09:43:33.251Z,81568.00
2019-06-10T09:44:33.372Z,82304.00
2019-06-10T09:45:33.292Z,80320.00
2019-06-10T09:46:33.252Z,80992.00
2019-06-10T09:47:34.709Z,73376.00
2019-06-10T09:48:33.523Z,58560.00
2019-06-10T09:49:33.569Z,68288.00
2019-06-10T09:50:33.424Z,64608.00
2019-06-10T09:51:32.613Z,66592.00
2019-06-10T09:52:32.977Z,68960.00
2019-06-10T09:53:41.293Z,64096.00
2019-06-10T09:54:33.578Z,63104.00
2019-06-10T09:55:32.924Z,72736.00
2019-06-10T09:56:33.108Z,67328.00
2019-06-10T09:57:32.398Z,64576.00
2019-06-10T09:58:33.105Z,70048.00
2019-06-10T09:59:32.436Z,93632.00
2019-06-10T10:00:33.151Z,88256.00
2019-06-10T10:01:32.749Z,54016.00
2019-06-10T10:02:33.166Z,50592.00
2019-06-10T10:03:33.051Z,81280.00
2019-06-10T10:04:32.838Z,60896.00
2019-06-10T10:05:33.794Z,62240.00
2019-06-10T10:06:32.809Z,46912.00
2019-06-10T10:07:32.513Z,44704.00
2019-06-10T10:08:32.705Z,44992.00
2019-06-10T10:09:36.677Z,42336.00
2019-06-10T10:10:32.795Z,39360.00
2019-06-10T10:11:32.225Z,46624.00
2019-06-10T10:12:32.821Z,52352.00
2019-06-10T10:13:35.356Z,49792.00
2019-06-10T10:14:33.457Z,56096.00
2019-06-10T10:15:34.528Z,67520.00
2019-06-10T10:16:33.975Z,58016.00
2019-06-10T10:17:33.411Z,63200.00
2019-06-10T10:18:33.454Z,53472.00
2019-06-10T10:19:32.097Z,53888.00
2019-06-10T10:20:34.085Z,55488.00
2019-06-10T10:21:32.069Z,75040.00
2019-06-10T10:22:33.616Z,53536.00
2019-06-10T10:23:49.600Z,55264.00
2019-06-10T10:24:34.074Z,50592.00
2019-06-10T10:25:32.829Z,50272.00
2019-06-10T10:26:31.999Z,49920.00
2019-06-10T10:27:32.427Z,47488.00
2019-06-10T10:28:33.439Z,45824.00
2019-06-10T10:29:32.833Z,45984.00
2019-06-10T10:30:33.189Z,47488.00
2019-06-10T10:31:32.502Z,46624.00
2019-06-10T10:32:33.410Z,59104.00
2019-06-10T10:33:33.366Z,63680.00
2019-06-10T10:34:33.317Z,68032.00
2019-06-10T10:35:32.639Z,70976.00
2019-06-10T10:36:33.525Z,76384.00
2019-06-10T10:37:32.754Z,67328.00
2019-06-10T10:38:34.541Z,74912.00
2019-06-10T10:39:32.713Z,62848.00
2019-06-10T10:40:32.567Z,63776.00
2019-06-10T10:41:32.333Z,63968.00
2019-06-10T10:42:42.721Z,50752.00
2019-06-10T10:43:34.061Z,61184.00
2019-06-10T10:44:32.005Z,53408.00
2019-06-10T10:45:31.735Z,50016.00
2019-06-10T10:46:32.624Z,85728.00
2019-06-10T10:47:33.586Z,71712.00
2019-06-10T10:48:33.593Z,73920.00
2019-06-10T10:49:32.639Z,64544.00
2019-06-10T10:50:34.136Z,62144.00
2019-06-10T10:51:32.692Z,67456.00
2019-06-10T10:52:33.075Z,65856.00
2019-06-10T10:53:32.818Z,56576.00
2019-06-10T10:54:35.994Z,54752.00
2019-06-10T10:55:33.376Z,83616.00
2019-06-10T10:56:33.468Z,95232.00
2019-06-10T10:57:33.044Z,84352.00
2019-06-10T10:58:33.041Z,75616.00
2019-06-10T10:59:33.254Z,85248.00
2019-06-10T11:00:36.601Z,78784.00
2019-06-10T11:01:33.295Z,66560.00
2019-06-10T11:02:32.207Z,62048.00
2019-06-10T11:03:33.635Z,50784.00
2019-06-10T11:04:32.849Z,47904.00
2019-06-10T11:05:33.301Z,48704.00
2019-06-10T11:06:32.311Z,49984.00
2019-06-10T11:07:33.936Z,56256.00
2019-06-10T11:08:33.334Z,73504.00
2019-06-10T11:09:33.033Z,59104.00
2019-06-10T11:10:33.018Z,94208.00
2019-06-10T11:11:33.253Z,86976.00
2019-06-10T11:12:33.179Z,55520.00
2019-06-10T11:13:33.314Z,59584.00
2019-06-10T11:14:33.337Z,75104.00
2019-06-10T11:15:33.804Z,87936.00
2019-06-10T11:16:33.029Z,97504.00
2019-06-10T11:17:33.687Z,72384.00
2019-06-10T11:18:33.561Z,62336.00
2019-06-10T11:19:32.840Z,77696.00
2019-06-10T11:20:33.526Z,58976.00
2019-06-10T11:21:33.043Z,49568.00
2019-06-10T11:22:32.820Z,52768.00
2019-06-10T11:23:34.229Z,62688.00
2019-06-10T11:24:37.751Z,57056.00
2019-06-10T11:25:33.201Z,75264.00
2019-06-10T11:26:32.834Z,72416.00
2019-06-10T11:27:33.150Z,63200.00
2019-06-10T11:28:32.125Z,54432.00
2019-06-10T11:29:32.865Z,52192.00
2019-06-10T11:30:32.417Z,61664.00
2019-06-10T11:31:32.852Z,53152.00
2019-06-10T11:32:32.784Z,56448.00
2019-06-10T11:33:32.902Z,52800.00
2019-06-10T11:34:33.269Z,59488.00
2019-06-10T11:35:31.058Z,57824.00
2019-06-10T11:36:31.044Z,58112.00
2019-06-10T11:37:31.029Z,54240.00
2019-06-10T11:38:32.909Z,60320.00
2019-06-10T11:39:33.020Z,65120.00
2019-06-10T11:40:33.887Z,60000.00
2019-06-10T11:41:32.493Z,57216.00
2019-06-10T11:42:33.385Z,61152.00
2019-06-10T11:43:33.100Z,67584.00
2019-06-10T11:44:33.195Z,57024.00
2019-06-10T11:45:32.869Z,53600.00
2019-06-10T11:46:32.566Z,60800.00
2019-06-10T11:47:32.901Z,54688.00
2019-06-10T11:48:32.830Z,60384.00
2019-06-10T11:49:30.863Z,58880.00
2019-06-10T11:50:33.264Z,59680.00
2019-06-10T11:51:30.836Z,50720.00
2019-06-10T11:52:33.481Z,80640.00
2019-06-10T11:53:31.202Z,86464.00
2019-06-10T11:54:33.996Z,86432.00
2019-06-10T11:55:32.759Z,96704.00
2019-06-10T11:56:33.504Z,81440.00
2019-06-10T11:57:32.953Z,60672.00
2019-06-10T11:58:33.083Z,48320.00
2019-06-10T11:59:32.763Z,55264.00
2019-06-10T12:00:33.051Z,56352.00
2019-06-10T12:01:30.925Z,53312.00
2019-06-10T12:02:32.847Z,55968.00
2019-06-10T12:03:30.675Z,56224.00
2019-06-10T12:04:30.663Z,74272.00
2019-06-10T12:05:32.638Z,74624.00
2019-06-10T12:06:33.360Z,57696.00
2019-06-10T12:07:33.035Z,66048.00
2019-06-10T12:08:32.871Z,86592.00
2019-06-10T12:09:33.174Z,74528.00
2019-06-10T12:10:32.960Z,62752.00